Time;durP1;ratioP1;P1;durP2;ratioP2;P2;SDS_P1;SDS_P2;PMS_P1;PMS_P2;Temp;Humidity;BMP_temperature;BMP_pressure;BME280_temperature;BME280_humidity;BME280_pressure;Samples;Min_cycle;Max_cycle;Signal;HPM_P1;HPM_P2
2021/04/15 00:01:20;;;;;;;0.20;0.20;;;;;;;4.83;46.47;102035.16;4832856;29;20038;-78
2021/04/15 00:04:08;;;;;;;0.30;0.30;;;;;;;4.82;46.99;102034.31;4837380;29;20053;-78
2021/04/15 00:06:34;;;;;;;0.35;0.20;;;;;;;4.68;47.16;102011.59;4825904;29;20037;-77
2021/04/15 00:09:06;;;;;;;5.47;0.25;;;;;;;4.77;46.91;102017.78;4812579;29;20393;-76
2021/04/15 00:11:37;;;;;;;1.00;0.35;;;;;;;4.81;46.65;102029.91;4828664;29;20077;-77
2021/04/15 00:14:02;;;;;;;0.30;0.20;;;;;;;4.66;46.97;102010.97;4831962;29;20105;-75
2021/04/15 00:16:32;;;;;;;0.43;0.22;;;;;;;4.63;47.76;102005.94;4829193;29;20497;-77
2021/04/15 00:18:59;;;;;;;0.55;0.20;;;;;;;4.56;47.62;102002.28;4827231;29;20022;-76
2021/04/15 00:21:25;;;;;;;0.15;0.15;;;;;;;4.55;47.17;102006.00;4816563;29;20034;-77
2021/04/15 00:23:53;;;;;;;0.20;0.20;;;;;;;4.51;48.09;102010.13;4835451;29;20042;-77
2021/04/15 00:26:26;;;;;;;0.55;0.30;;;;;;;4.55;48.28;102024.97;4832505;29;20121;-77
2021/04/15 00:28:56;;;;;;;0.90;0.22;;;;;;;4.44;47.94;102014.59;4825812;29;20039;-78
2021/04/15 00:31:25;;;;;;;0.35;0.30;;;;;;;4.36;47.43;102002.81;4829381;29;20036;-77
2021/04/15 00:33:50;;;;;;;0.98;0.22;;;;;;;4.43;48.59;102026.47;4814080;29;20034;-76
2021/04/15 00:36:16;;;;;;;0.73;0.35;;;;;;;4.28;48.22;102005.63;4830825;29;20030;-78
2021/04/15 00:38:42;;;;;;;0.28;0.20;;;;;;;4.31;47.55;102021.50;4834763;29;20030;-77
2021/04/15 00:41:10;;;;;;;0.85;0.30;;;;;;;4.21;48.03;102003.88;4830131;29;20030;-75
2021/04/15 00:43:59;;;;;;;0.30;0.30;;;;;;;4.16;49.04;102015.22;4853229;29;20037;-78
2021/04/15 00:46:47;;;;;;;0.20;0.20;;;;;;;4.15;48.02;102027.94;4816269;29;20438;-76
2021/04/15 00:49:45;;;;;;;;;;;;;;;;;;;;;
2021/04/15 00:52:22;;;;;;;0.20;0.20;;;;;;;3.86;49.73;101990.00;4833082;29;20034;-78
2021/04/15 00:55:06;;;;;;;0.40;0.40;;;;;;;4.01;48.48;102023.31;4829084;29;20026;-80
2021/04/15 00:57:48;;;;;;;;;;;;;;;;;;;;;
2021/04/15 01:00:16;;;;;;;0.57;0.40;;;;;;;3.78;49.83;102017.94;4839455;29;20093;-79
2021/04/15 01:02:42;;;;;;;1.10;0.30;;;;;;;3.62;49.55;102014.34;4836499;29;20038;-79
2021/04/15 01:05:20;;;;;;;1.75;0.40;;;;;;;3.55;49.79;102015.25;4818705;29;20551;-79
2021/04/15 01:08:06;;;;;;;0.30;0.30;;;;;;;3.47;49.28;102008.03;4819500;29;20102;-79
2021/04/15 01:10:37;;;;;;;0.60;0.60;;;;;;;3.38;50.42;102015.38;4836500;29;20050;-78
2021/04/15 01:13:29;;;;;;;0.38;0.38;;;;;;;3.42;50.23;102026.69;4825141;29;20042;-79
2021/04/15 01:16:24;;;;;;;0.28;0.20;;;;;;;3.35;50.82;102025.72;4851784;29;20083;-77
2021/04/15 01:19:14;;;;;;;0.90;0.30;;;;;;;3.21;50.32;102005.66;4838391;29;20385;-78
2021/04/15 01:22:27;;;;;;;0.22;0.20;;;;;;;3.25;50.30;102032.16;4833624;29;20049;-76
2021/04/15 01:25:45;;;;;;;;;;;;;;;;;;;;;
2021/04/15 01:28:22;;;;;;;0.20;0.17;;;;;;;3.17;50.78;102024.13;4842410;29;20392;-76
2021/04/15 01:31:19;;;;;;;1.33;0.30;;;;;;;3.10;50.76;102006.94;4837744;29;20096;-79
2021/04/15 01:34:00;;;;;;;2.97;0.55;;;;;;;3.16;50.52;102011.63;4844242;29;20049;-79
2021/04/15 01:36:35;;;;;;;1.48;0.40;;;;;;;3.09;50.16;101999.84;4841496;29;20069;-78
2021/04/15 01:39:14;;;;;;;0.88;0.55;;;;;;;3.11;51.21;102014.84;4825070;29;20034;-80
2021/04/15 01:41:53;;;;;;;0.43;0.20;;;;;;;3.02;51.37;102009.66;4835294;29;20066;-76
2021/04/15 01:44:31;;;;;;;0.20;0.20;;;;;;;2.96;51.01;102013.91;4849774;29;20024;-77
2021/04/15 01:47:06;;;;;;;2.17;0.20;;;;;;;2.87;51.17;102015.81;4832466;29;20030;-76
2021/04/15 01:49:40;;;;;;;0.20;0.15;;;;;;;2.88;51.17;102014.81;4848378;29;20033;-77
2021/04/15 01:52:18;;;;;;;2.00;0.20;;;;;;;2.80;51.41;102012.13;4851923;29;20036;-77
2021/04/15 01:54:54;;;;;;;0.70;0.43;;;;;;;2.87;52.17;102025.78;4853209;29;20056;-76
2021/04/15 01:57:33;;;;;;;0.52;0.20;;;;;;;2.76;51.42;102008.09;4845836;29;20089;-76
2021/04/15 02:00:09;;;;;;;0.45;0.40;;;;;;;2.83;52.18;102019.88;4847249;29;20041;-77
2021/04/15 02:02:41;;;;;;;0.20;0.20;;;;;;;2.69;51.64;102004.44;4851927;29;20036;-75
2021/04/15 02:05:12;;;;;;;0.13;0.10;;;;;;;2.68;52.12;102003.56;4830428;29;20046;-75
2021/04/15 02:07:45;;;;;;;0.17;0.17;;;;;;;2.72;51.13;102017.59;4835902;29;20058;-77
2021/04/15 02:10:14;;;;;;;0.10;0.10;;;;;;;2.64;51.40;102012.19;4843331;29;20036;-78
2021/04/15 02:12:45;;;;;;;0.10;0.10;;;;;;;2.64;51.49;102023.00;4834749;29;20046;-77
2021/04/15 02:15:25;;;;;;;0.55;0.30;;;;;;;2.55;52.28;102012.22;4838447;29;20036;-76
2021/04/15 02:17:55;;;;;;;0.20;0.20;;;;;;;2.48;52.34;102008.53;4842113;29;20034;-77
2021/04/15 02:20:27;;;;;;;0.55;0.40;;;;;;;2.49;52.09;102018.31;4817878;29;20385;-78
2021/04/15 02:23:10;;;;;;;0.65;0.40;;;;;;;2.49;52.75;102021.03;4818287;29;20038;-77
2021/04/15 02:25:54;;;;;;;0.45;0.25;;;;;;;2.42;51.71;102022.72;4835571;29;20030;-75
2021/04/15 02:28:53;;;;;;;;;;;;;;;;;;;;;
2021/04/15 02:31:26;;;;;;;0.32;0.30;;;;;;;2.25;51.84;102003.88;4824751;29;20021;-77
2021/04/15 02:33:59;;;;;;;0.10;0.10;;;;;;;2.30;53.11;102024.13;4816301;29;20034;-75
2021/04/15 02:36:46;;;;;;;0.17;0.17;;;;;;;2.24;51.95;102012.97;4832531;29;20482;-76
2021/04/15 02:39:24;;;;;;;0.20;0.20;;;;;;;2.07;52.62;102000.53;4839799;29;20094;-75
2021/04/15 02:42:36;;;;;;;;;;;;;;;;;;;;;
2021/04/15 02:45:22;;;;;;;0.28;0.13;;;;;;;2.11;52.91;102023.47;4833158;29;20039;-75
2021/04/15 02:48:02;;;;;;;0.10;0.10;;;;;;;1.92;53.32;101998.50;4829042;29;20038;-76
2021/04/15 02:50:40;;;;;;;;;;;;;;;;;;;;;
2021/04/15 02:54:05;;;;;;;;;;;;;;;;;;;;;
2021/04/15 02:56:40;;;;;;;0.10;0.05;;;;;;;2.01;52.60;102034.44;4840549;29;20044;-74
2021/04/15 02:59:25;;;;;;;;;;;;;;;;;;;;;
2021/04/15 03:02:00;;;;;;;0.03;0.03;;;;;;;1.88;53.12;102032.28;4840206;29;20157;-76
2021/04/15 03:04:27;;;;;;;0.10;0.10;;;;;;;1.84;53.09;102024.66;4843856;29;20099;-76
2021/04/15 03:07:00;;;;;;;0.10;0.10;;;;;;;1.83;52.59;102026.53;4829800;29;20045;-77
2021/04/15 03:09:26;;;;;;;0.10;0.10;;;;;;;1.82;52.81;102018.59;4840704;29;20026;-75
2021/04/15 03:12:02;;;;;;;0.00;0.00;;;;;;;1.89;52.52;102036.63;4840079;29;20036;-76
2021/04/15 03:14:41;;;;;;;0.52;0.45;;;;;;;1.85;53.23;102027.19;4820733;29;20026;-77
2021/04/15 03:17:08;;;;;;;0.00;0.00;;;;;;;1.87;53.59;102033.28;4827765;29;20113;-76
2021/04/15 03:19:45;;;;;;;0.25;0.20;;;;;;;1.78;52.26;102028.88;4828617;29;20034;-75
2021/04/15 03:22:17;;;;;;;0.00;0.00;;;;;;;1.85;53.09;102037.13;4830423;29;20036;-78
2021/04/15 03:24:55;;;;;;;0.10;0.08;;;;;;;1.87;53.28;102046.75;4820257;29;20033;-78
2021/04/15 03:27:28;;;;;;;0.10;0.10;;;;;;;1.84;53.50;102049.78;4853413;29;20030;-78
2021/04/15 03:30:01;;;;;;;1.30;0.30;;;;;;;1.80;54.59;102048.44;4833960;29;20033;-78
2021/04/15 03:32:33;;;;;;;1.98;0.25;;;;;;;1.72;54.99;102037.63;4825867;29;20385;-77
2021/04/15 03:35:19;;;;;;;1.98;0.30;;;;;;;1.70;54.72;102031.56;4838843;29;20033;-76
2021/04/15 03:37:57;;;;;;;;;;;;;;;1.69;55.40;102035.28;4836877;29;20030;-77
2021/04/15 03:40:27;;;;;;;0.40;0.40;;;;;;;1.53;54.84;102025.31;4836378;29;20288;-76
2021/04/15 03:43:14;;;;;;;0.08;0.08;;;;;;;1.51;54.95;102020.09;4842836;29;20081;-77
2021/04/15 03:45:51;;;;;;;0.10;0.10;;;;;;;1.55;55.13;102029.53;4835746;29;20034;-76
2021/04/15 03:48:34;;;;;;;0.25;0.20;;;;;;;1.42;55.54;102015.72;4829353;29;20492;-74
2021/04/15 03:51:07;;;;;;;0.10;0.10;;;;;;;1.58;54.89;102039.16;4811364;29;20480;-75
2021/04/15 03:53:52;;;;;;;0.10;0.10;;;;;;;1.62;54.64;102035.13;4823691;29;20046;-75
2021/04/15 03:56:30;;;;;;;0.10;0.10;;;;;;;1.74;54.48;102032.94;4838098;29;20454;-75
2021/04/15 03:59:17;;;;;;;0.10;0.10;;;;;;;1.83;54.15;102031.09;4834068;29;20037;-75
2021/04/15 04:01:54;;;;;;;0.10;0.10;;;;;;;2.00;54.17;102040.00;4830032;29;20022;-76
2021/04/15 04:04:41;;;;;;;0.28;0.28;;;;;;;2.12;55.23;102038.66;4837540;29;20054;-77
2021/04/15 04:07:18;;;;;;;0.32;0.30;;;;;;;2.17;54.32;102032.75;4824859;29;20034;-76
2021/04/15 04:09:49;;;;;;;0.35;0.35;;;;;;;2.24;55.25;102034.56;4817498;29;20038;-75
2021/04/15 04:12:32;;;;;;;0.30;0.30;;;;;;;2.37;54.49;102042.16;4812760;29;20030;-77
2021/04/15 04:15:07;;;;;;;0.20;0.20;;;;;;;2.53;54.39;102054.78;4834353;29;20022;-76
2021/04/15 04:18:14;;;;;;;;;;;;;;;;;;;;;
2021/04/15 04:20:42;;;;;;;0.40;0.30;;;;;;;2.68;54.92;102037.84;4834507;29;20044;-76
2021/04/15 04:23:42;;;;;;;0.20;0.10;;;;;;;2.86;54.96;102045.72;4834685;29;20035;-75
2021/04/15 04:26:18;;;;;;;0.40;0.40;;;;;;;2.83;53.50;102019.03;4840648;29;20033;-76
2021/04/15 04:29:13;;;;;;;0.38;0.30;;;;;;;3.00;53.46;102038.75;4839591;29;20086;-75
2021/04/15 04:31:43;;;;;;;0.35;0.30;;;;;;;3.03;54.77;102044.63;4832771;29;20049;-75
2021/04/15 04:34:11;;;;;;;0.30;0.30;;;;;;;3.07;54.18;102045.97;4836022;29;20027;-76
2021/04/15 04:36:38;;;;;;;0.43;0.30;;;;;;;3.00;53.86;102033.34;4840464;29;20048;-75
2021/04/15 04:39:06;;;;;;;0.40;0.40;;;;;;;3.14;54.56;102059.63;4840078;29;21913;-76
2021/04/15 04:42:01;;;;;;;0.30;0.30;;;;;;;3.19;53.37;102059.09;4845064;29;20485;-77
2021/04/15 04:44:53;;;;;;;0.47;0.30;;;;;;;3.08;53.67;102035.97;4813717;29;20026;-76
2021/04/15 04:47:37;;;;;;;0.90;0.40;;;;;;;3.16;53.63;102048.63;4840554;29;20050;-76
2021/04/15 04:50:22;;;;;;;0.32;0.30;;;;;;;3.08;53.05;102063.88;4838470;29;20033;-78
2021/04/15 04:53:02;;;;;;;0.88;0.68;;;;;;;2.87;53.66;102045.53;4842232;29;20044;-76
2021/04/15 04:55:38;;;;;;;0.50;0.50;;;;;;;2.70;53.58;102025.00;4830720;29;20408;-76
2021/04/15 04:58:14;;;;;;;;;;;;;;;2.91;53.91;102063.09;4846384;29;20038;-74
2021/04/15 05:00:45;;;;;;;1.85;0.65;;;;;;;2.84;53.52;102077.47;4821152;29;19913;-74
2021/04/15 05:03:16;;;;;;;0.57;0.57;;;;;;;2.75;53.72;102072.09;4841674;29;20033;-75
2021/04/15 05:05:41;;;;;;;0.40;0.40;;;;;;;2.70;54.11;102074.50;4831716;29;20055;-74
2021/04/15 05:08:13;;;;;;;2.70;0.85;;;;;;;2.60;54.27;102063.88;4823228;29;20041;-73
2021/04/15 05:10:41;;;;;;;0.32;0.32;;;;;;;2.57;54.55;102072.31;4822872;29;20095;-75
2021/04/15 05:13:18;;;;;;;1.15;0.50;;;;;;;2.48;54.88;102062.53;4815797;29;20128;-73
2021/04/15 05:16:04;;;;;;;0.35;0.35;;;;;;;2.51;54.33;102078.41;4815104;29;20029;-72
2021/04/15 05:18:32;;;;;;;1.20;0.40;;;;;;;2.40;54.49;102059.88;4817690;29;20042;-74
2021/04/15 05:21:17;;;;;;;0.50;0.50;;;;;;;2.44;54.85;102072.03;4847107;29;20038;-74
2021/04/15 05:23:54;;;;;;;5.07;0.40;;;;;;;2.44;55.29;102074.72;4830485;29;20394;-77
2021/04/15 05:26:23;;;;;;;1.48;0.45;;;;;;;2.55;55.06;102095.13;4820976;29;20054;-74
2021/04/15 05:28:51;;;;;;;2.97;0.45;;;;;;;2.47;55.10;102090.56;4821396;29;20103;-75
2021/04/15 05:31:20;;;;;;;0.50;0.50;;;;;;;2.41;55.78;102077.72;4813023;29;20527;-75
2021/04/15 05:33:46;;;;;;;0.60;0.50;;;;;;;2.39;55.22;102087.88;4819548;29;20046;-75
2021/04/15 05:36:43;;;;;;;0.45;0.45;;;;;;;2.38;54.98;102096.97;4820626;29;20473;-74
2021/04/15 05:39:21;;;;;;;0.35;0.20;;;;;;;2.24;55.62;102088.56;4832253;29;20038;-74
2021/04/15 05:42:11;;;;;;;0.55;0.30;;;;;;;2.25;56.70;102101.06;4820643;29;20106;-74
2021/04/15 05:44:44;;;;;;;0.80;0.50;;;;;;;2.08;56.80;102083.19;4818070;29;20046;-74
2021/04/15 05:47:31;;;;;;;0.85;0.40;;;;;;;2.20;56.16;102098.00;4854841;29;20191;-74
2021/04/15 05:50:06;;;;;;;0.50;0.30;;;;;;;2.11;56.34;102093.63;4812121;29;20034;-74
2021/04/15 05:52:40;;;;;;;0.40;0.40;;;;;;;2.17;56.92;102103.75;4818765;29;20067;-73
2021/04/15 05:55:18;;;;;;;3.30;0.20;;;;;;;2.10;56.04;102091.94;4822063;29;20039;-75
2021/04/15 05:58:07;;;;;;;4.22;0.30;;;;;;;2.13;56.52;102086.19;4813756;29;20030;-74
2021/04/15 06:01:10;;;;;;;0.43;0.30;;;;;;;2.23;57.09;102097.69;4820039;29;20072;-73
2021/04/15 06:03:57;;;;;;;0.35;0.32;;;;;;;2.20;56.83;102086.38;4819161;29;20043;-74
2021/04/15 06:06:44;;;;;;;0.30;0.30;;;;;;;2.26;56.85;102091.09;4831047;29;20078;-74
2021/04/15 06:09:10;;;;;;;0.93;0.30;;;;;;;2.23;57.12;102084.19;4827262;29;20046;-73
2021/04/15 06:12:15;;;;;;;0.15;0.15;;;;;;;2.48;56.27;102108.44;4801120;29;20088;-74
2021/04/15 06:15:08;;;;;;;0.10;0.10;;;;;;;2.44;56.51;102094.44;4806916;29;20049;-74
2021/04/15 06:18:11;;;;;;;0.40;0.30;;;;;;;2.55;56.51;102106.75;4835089;29;20058;-76
2021/04/15 06:20:45;;;;;;;0.75;0.75;;;;;;;2.43;57.05;102094.63;4791882;29;20118;-73
2021/04/15 06:23:26;;;;;;;0.30;0.30;;;;;;;2.56;57.14;102099.50;4802543;29;20516;-75
2021/04/15 06:25:58;;;;;;;4.13;0.60;;;;;;;2.66;57.87;102113.66;4816188;29;20117;-74
2021/04/15 06:28:56;;;;;;;0.30;0.20;;;;;;;2.79;56.33;102113.13;4804501;29;20030;-75
2021/04/15 06:31:58;;;;;;;1.95;0.55;;;;;;;2.91;56.51;102119.84;4814856;29;20042;-75
2021/04/15 06:34:27;;;;;;;0.20;0.20;;;;;;;2.81;56.85;102081.38;4819656;29;20030;-75
2021/04/15 06:37:17;;;;;;;0.60;0.40;;;;;;;3.12;56.86;102113.00;4815481;29;20057;-73
2021/04/15 06:39:49;;;;;;;1.30;0.50;;;;;;;3.22;56.83;102102.00;4816154;29;20215;-73
2021/04/15 06:42:40;;;;;;;0.40;0.40;;;;;;;3.41;57.45;102108.81;4806654;29;20041;-74
2021/04/15 06:45:14;;;;;;;0.57;0.40;;;;;;;3.54;57.36;102111.78;4818844;29;20030;-73
2021/04/15 06:48:06;;;;;;;0.73;0.25;;;;;;;3.67;57.39;102125.56;4810163;29;20467;-73
2021/04/15 06:51:06;;;;;;;1.00;0.40;;;;;;;3.77;56.68;102116.41;4818540;29;20046;-73
2021/04/15 06:54:36;;;;;;;2.55;0.50;;;;;;;3.94;57.08;102114.41;4805104;29;20060;-74
2021/04/15 06:57:11;;;;;;;0.50;0.30;;;;;;;4.06;56.42;102120.22;4811108;29;20035;-75
2021/04/15 06:59:55;;;;;;;0.50;0.47;;;;;;;4.20;56.36;102133.00;4821116;29;20501;-77
2021/04/15 07:02:54;;;;;;;0.45;0.38;;;;;;;4.27;56.38;102138.53;4819363;29;20038;-75
2021/04/15 07:05:38;;;;;;;0.17;0.10;;;;;;;4.23;57.83;102112.84;4821090;29;20045;-76
2021/04/15 07:08:18;;;;;;;0.35;0.30;;;;;;;4.34;57.19;102113.22;4830924;29;20044;-74
2021/04/15 07:11:09;;;;;;;1.02;0.60;;;;;;;4.55;57.76;102136.06;4837556;29;20083;-75
2021/04/15 07:14:10;;;;;;;5.70;0.55;;;;;;;4.61;58.45;102135.31;4838101;29;20107;-73
2021/04/15 07:17:09;;;;;;;0.50;0.50;;;;;;;4.75;57.63;102132.84;4834068;29;20127;-75
2021/04/15 07:19:58;;;;;;;0.73;0.55;;;;;;;4.82;57.61;102120.19;4834726;29;20041;-75
2021/04/15 07:22:42;;;;;;;2.40;0.77;;;;;;;4.95;58.37;102128.56;4830549;29;20038;-75
2021/04/15 07:25:16;;;;;;;2.50;0.50;;;;;;;5.01;58.46;102122.38;4835159;29;20029;-73
2021/04/15 07:27:57;;;;;;;3.80;0.40;;;;;;;5.05;58.09;102109.25;4818083;29;20117;-75
2021/04/15 07:30:44;;;;;;;4.22;0.30;;;;;;;5.27;58.21;102129.19;4833240;29;20368;-75
2021/04/15 07:34:17;;;;;;;0.82;0.43;;;;;;;5.47;58.26;102123.16;4840714;29;20037;-74
2021/04/15 07:36:58;;;;;;;1.00;0.38;;;;;;;5.42;58.24;102102.03;4737615;30;20039;-73
2021/04/15 07:39:27;;;;;;;1.30;0.35;;;;;;;5.65;58.18;102120.88;4817900;29;20041;-75
2021/04/15 07:42:46;;;;;;;;;;;;;;;;;;;;;
2021/04/15 07:45:50;;;;;;;0.38;0.38;;;;;;;5.89;57.84;102124.25;4827100;29;20028;-74
2021/04/15 07:49:21;;;;;;;;;;;;;;;;;;;;;
2021/04/15 07:52:18;;;;;;;1.23;0.30;;;;;;;6.19;57.87;102114.13;4784929;29;20065;-74
2021/04/15 07:55:51;;;;;;;;;;;;;;;;;;;;;
2021/04/15 07:59:18;;;;;;;1.00;0.60;;;;;;;6.45;57.66;102109.94;4849520;29;20064;-76
2021/04/15 08:02:05;;;;;;;0.60;0.35;;;;;;;6.61;57.48;102116.97;4845916;29;20384;-77
2021/04/15 08:36:54;;;;;;;;;;;;;;;;;;;;;
2021/04/15 08:40:03;;;;;;;0.10;0.10;;;;;;;10.86;47.92;102114.03;4746124;30;20059;-78
2021/04/15 08:42:52;;;;;;;0.10;0.10;;;;;;;11.85;45.46;102137.69;4729163;30;20036;-74
2021/04/15 08:45:48;;;;;;;0.30;0.10;;;;;;;12.17;44.65;102113.59;4840196;29;20018;-77
2021/04/15 08:48:41;;;;;;;0.55;0.20;;;;;;;12.28;43.30;102120.19;4829046;29;20469;-75
2021/04/15 08:51:51;;;;;;;0.15;0.13;;;;;;;12.10;42.50;102133.97;4833900;29;20125;-75
2021/04/15 08:54:40;;;;;;;0.52;0.10;;;;;;;11.75;42.82;102131.94;4823920;29;20066;-77
2021/04/15 08:57:44;;;;;;;;;;;;;;;;;;;;;
2021/04/15 09:00:44;;;;;;;0.82;0.20;;;;;;;11.65;42.54;102127.84;4837411;29;20026;-76
2021/04/15 09:03:22;;;;;;;0.75;0.30;;;;;;;12.00;44.27;102140.88;4836598;29;20116;-75
2021/04/15 09:06:16;;;;;;;1.38;0.00;;;;;;;12.42;42.25;102137.25;4836026;29;20501;-76
2021/04/15 09:27:15;;;;;;;;;;;;;;;;;;;;;
2021/04/15 09:30:19;;;;;;;;;;;;;;;;;;;;;
2021/04/15 09:33:56;;;;;;;2.05;0.10;;;;;;;22.55;30.73;102145.06;4826449;29;20025;-75
2021/04/15 09:36:56;;;;;;;0.30;0.10;;;;;;;23.31;25.97;102124.38;4782800;29;20050;-76
2021/04/15 09:39:37;;;;;;;0.47;0.20;;;;;;;23.01;25.94;102140.56;4786513;29;20155;-74
2021/04/15 09:42:27;;;;;;;0.40;0.20;;;;;;;22.35;25.00;102137.88;4796775;29;20035;-75
2021/04/15 09:45:32;;;;;;;1.48;0.22;;;;;;;22.44;26.53;102138.00;4808417;29;20034;-75
2021/04/15 09:48:36;;;;;;;;;;;;;;;;;;;;;
2021/04/15 09:51:20;;;;;;;0.43;0.10;;;;;;;23.44;25.37;102129.09;4852170;29;20068;-75
2021/04/15 09:54:25;;;;;;;0.35;0.10;;;;;;;23.47;24.59;102128.47;4838338;29;20047;-76
2021/04/15 09:57:27;;;;;;;0.43;0.10;;;;;;;23.76;24.70;102130.06;4791208;29;20050;-76
2021/04/15 10:00:15;;;;;;;0.85;0.20;;;;;;;24.11;22.90;102130.38;4813683;29;20121;-78
2021/04/15 10:06:16;;;;;;;0.10;0.10;;;;;;;23.61;22.27;102113.66;4788233;29;20527;-76
2021/04/15 10:13:16;;;;;;;;;;;;;;;;;;;;;
2021/04/15 10:16:23;;;;;;;0.80;0.30;;;;;;;22.55;23.77;102122.75;4841084;29;19912;-75
2021/04/15 10:19:32;;;;;;;;;;;;;;;;;;;;;
2021/04/15 10:22:17;;;;;;;0.20;0.10;;;;;;;22.16;22.97;102120.34;4839966;29;20025;-76
2021/04/15 10:39:24;;;;;;;;;;;;;;;;;;;;;
2021/04/15 10:42:11;;;;;;;;;;;;;;;;;;;;;
2021/04/15 10:52:17;;;;;;;0.00;0.00;;;;;;;30.01;16.63;102113.75;4832112;29;20174;-75
2021/04/15 10:59:29;;;;;;;;;;;;;;;;;;;;;
2021/04/15 11:13:14;;;;;;;;;;;;;;;;;;;;;
2021/04/15 11:20:24;;;;;;;;;;;;;;;;;;;;;
2021/04/15 11:26:54;;;;;;;0.25;0.15;;;;;;;28.04;14.45;102064.72;4569718;30;20056;-74
2021/04/15 11:29:48;;;;;;;0.60;0.30;;;;;;;26.66;14.50;102084.94;4631273;30;20051;-75
2021/04/15 11:32:50;;;;;;;0.10;0.10;;;;;;;26.91;17.05;102085.19;4704521;30;20073;-75
2021/04/15 11:35:30;;;;;;;0.45;0.20;;;;;;;27.87;15.47;102060.06;4719620;30;20056;-75
2021/04/15 11:38:27;;;;;;;0.43;0.20;;;;;;;27.28;14.98;102072.25;4756774;29;20039;-78
2021/04/15 11:41:20;;;;;;;2.70;0.30;;;;;;;27.15;16.87;102053.69;4803610;29;20066;-75
2021/04/15 11:47:43;;;;;;;0.73;0.30;;;;;;;30.16;16.31;102063.38;4802878;29;20038;-76
2021/04/15 11:50:42;;;;;;;0.40;0.40;;;;;;;31.53;14.65;102055.38;4796897;29;20038;-75
2021/04/15 11:53:34;;;;;;;0.52;0.20;;;;;;;33.30;13.28;102065.03;4805117;29;20125;-76
2021/04/15 11:56:29;;;;;;;1.38;0.10;;;;;;;32.91;11.61;102049.03;4824726;29;20018;-77
2021/04/15 11:59:17;;;;;;;0.20;0.15;;;;;;;32.29;12.05;102063.41;4826401;29;20133;-75
2021/04/15 12:01:56;;;;;;;;;;;;;;;;;;;;;
2021/04/15 12:05:04;;;;;;;0.10;0.00;;;;;;;31.97;11.80;102052.25;4814364;29;20027;-75
2021/04/15 12:08:22;;;;;;;;;;;;;;;;;;;;;
2021/04/15 12:14:34;;;;;;;0.40;0.10;;;;;;;31.83;11.36;102053.63;4823160;29;20451;-78
2021/04/15 12:17:54;;;;;;;;;;;;;;;;;;;;;
2021/04/15 12:20:52;;;;;;;0.47;0.17;;;;;;;28.47;12.42;102013.94;4786042;29;20373;-79
2021/04/15 12:23:51;;;;;;;;;;;;;;;;;;;;;
2021/04/15 12:26:40;;;;;;;0.63;0.10;;;;;;;29.45;14.83;102017.84;4787277;29;20023;-76
2021/04/15 12:29:30;;;;;;;;;;;;;;;;;;;;;
2021/04/15 12:32:28;;;;;;;0.60;0.20;;;;;;;33.45;12.00;102049.81;4831436;29;20036;-76
2021/04/15 12:34:56;;;;;;;0.57;0.10;;;;;;;32.66;11.59;102032.44;4829805;29;20026;-77
2021/04/15 12:37:44;;;;;;;1.48;0.40;;;;;;;30.77;11.07;102014.16;4834571;29;20094;-75
2021/04/15 12:40:18;;;;;;;2.60;0.30;;;;;;;28.99;12.48;102013.25;4836277;29;20045;-76
2021/04/15 12:42:59;;;;;;;0.35;0.10;;;;;;;29.71;13.22;102026.66;4826377;29;20030;-76
2021/04/15 12:45:27;;;;;;;0.32;0.10;;;;;;;30.95;13.02;102031.50;4838596;29;20038;-77
2021/04/15 12:47:55;;;;;;;0.20;0.10;;;;;;;32.43;12.95;102028.84;4842034;29;20026;-74
2021/04/15 12:50:31;;;;;;;;;;;;;;;;;;;;;
2021/04/15 12:53:03;;;;;;;0.30;0.10;;;;;;;35.23;11.44;102031.19;4833316;29;20057;-76
2021/04/15 13:09:15;;;;;;;;;;;;;;;;;;;;;
2021/04/15 13:25:49;;;;;;;1.13;0.20;;;;;;;32.38;10.41;102010.16;4734771;30;20099;-76
2021/04/15 13:28:56;;;;;;;0.22;0.20;;;;;;;30.29;11.07;102000.03;4741625;29;20024;-77
2021/04/15 13:54:41;;;;;;;;;;;;;;;25.39;14.54;101974.94;5059046;24;20064;-73
2021/04/15 13:57:12;;;;;;;0.10;0.10;;;;;;;24.47;15.58;101969.28;4857232;29;19916;-74
2021/04/15 13:59:49;;;;;;;0.30;0.22;;;;;;;23.85;16.48;101941.03;4856396;29;20124;-74
2021/04/15 14:02:15;;;;;;;0.22;0.10;;;;;;;23.38;16.88;101957.31;4844218;29;20116;-74
2021/04/15 14:04:54;;;;;;;0.35;0.25;;;;;;;23.03;17.21;101951.41;4859322;29;20413;-72
2021/04/15 14:07:37;;;;;;;0.57;0.32;;;;;;;22.72;17.42;101957.66;4832565;29;20065;-73
2021/04/15 14:10:14;;;;;;;0.30;0.30;;;;;;;22.38;17.74;101953.31;4845088;29;20037;-75
2021/04/15 14:13:25;;;;;;;0.10;0.10;;;;;;;22.08;18.11;101922.13;4858150;29;20033;-74
2021/04/15 14:15:59;;;;;;;1.23;1.13;;;;;;;21.72;18.37;101925.56;4835169;29;20503;-76
2021/04/15 14:22:42;;;;;;;0.75;0.30;;;;;;;21.60;19.27;101933.59;4786570;29;20146;-76
2021/04/15 14:25:53;;;;;;;1.38;0.30;;;;;;;21.88;18.92;101911.38;4840455;29;20397;-77
2021/04/15 14:29:15;;;;;;;;;;;;;;;;;;;;;
2021/04/15 14:31:57;;;;;;;;;;;;;;;;;;;;;
2021/04/15 14:38:26;;;;;;;;;;;;;;;;;;;;;
2021/04/15 14:45:09;;;;;;;;;;;;;;;;;;;;;
2021/04/15 14:48:06;;;;;;;;;;;;;;;;;;;;;
2021/04/15 14:50:53;;;;;;;;;;;;;;;;;;;;;
2021/04/15 14:53:29;;;;;;;1.00;0.20;;;;;;;21.66;18.93;101910.09;4801259;29;20029;-76
2021/04/15 14:56:50;;;;;;;0.28;0.28;;;;;;;21.18;19.22;101911.13;4788157;29;20066;-76
2021/04/15 15:00:09;;;;;;;;;;;;;;;;;;;;;
2021/04/15 15:02:58;;;;;;;;;;;;;;;;;;;;;
2021/04/15 15:06:12;;;;;;;0.40;0.20;;;;;;;19.67;19.71;101885.47;4780197;29;20042;-77
2021/04/15 15:09:18;;;;;;;;;;;;;;;;;;;;;
2021/04/15 15:11:58;;;;;;;;;;;;;;;;;;;;;
2021/04/15 15:14:51;;;;;;;;;;;;;;;;;;;;;
2021/04/15 15:18:22;;;;;;;0.00;0.00;;;;;;;27.95;17.11;101916.97;4836671;29;20048;-74
2021/04/15 15:25:25;;;;;;;;;;;;;;;;;;;;;
2021/04/15 15:28:54;;;;;;;;;;;;;;;;;;;;;
2021/04/15 15:31:53;;;;;;;;;;;;;;;;;;;;;
2021/04/15 15:34:57;;;;;;;0.28;0.20;;;;;;;23.06;16.92;101894.97;4831502;29;20022;-74
2021/04/15 15:40:42;;;;;;;0.20;0.10;;;;;;;21.30;18.00;101880.06;4827186;29;20556;-77
2021/04/15 15:47:01;;;;;;;0.60;0.22;;;;;;;19.84;19.01;101884.22;4807590;29;20133;-74
2021/04/15 15:49:38;;;;;;;1.85;0.10;;;;;;;18.94;19.98;101862.22;4790409;29;20035;-74
2021/04/15 15:52:13;;;;;;;0.20;0.10;;;;;;;19.21;21.45;101866.44;4835163;29;20054;-73
2021/04/15 15:54:49;;;;;;;0.15;0.13;;;;;;;21.41;21.52;101862.06;4851905;29;20132;-74
2021/04/15 15:57:27;;;;;;;0.30;0.20;;;;;;;23.60;20.07;101875.50;4837435;29;20037;-75
2021/04/15 16:04:33;;;;;;;0.30;0.10;;;;;;;27.72;16.97;101860.41;4763572;29;20042;-74
2021/04/15 16:07:51;;;;;;;0.13;0.10;;;;;;;29.52;15.76;101863.06;4815811;29;20070;-78
2021/04/15 16:10:46;;;;;;;0.27;0.10;;;;;;;29.87;14.73;101871.66;4741173;29;20128;-75
2021/04/15 16:14:00;;;;;;;0.32;0.15;;;;;;;29.76;14.40;101865.72;4802164;29;20335;-73
2021/04/15 16:17:02;;;;;;;;;;;;;;;;;;;;;
2021/04/15 16:20:12;;;;;;;0.10;0.10;;;;;;;26.73;13.76;101851.59;4822797;29;20052;-76
2021/04/15 16:23:19;;;;;;;;;;;;;;;;;;;;;
2021/04/15 16:26:47;;;;;;;;;;;;;;;;;;;;;
2021/04/15 16:29:16;;;;;;;0.30;0.30;;;;;;;23.53;16.21;101842.47;4824294;29;20044;-75
2021/04/15 16:32:32;;;;;;;;;;;;;;;;;;;;;
2021/04/15 16:35:16;;;;;;;;;;;;;;;;;;;;;
2021/04/15 16:37:43;;;;;;;0.17;0.17;;;;;;;20.82;18.08;101835.78;4834111;29;20403;-75
2021/04/15 16:40:13;;;;;;;0.20;0.20;;;;;;;20.62;18.60;101837.72;4840905;29;20341;-75
2021/04/15 16:42:55;;;;;;;0.47;0.20;;;;;;;20.78;19.38;101835.56;4823247;29;20029;-75
2021/04/15 16:45:21;;;;;;;0.30;0.20;;;;;;;20.98;18.46;101851.09;4835361;29;20473;-75
2021/04/15 16:47:49;;;;;;;0.32;0.30;;;;;;;20.59;18.88;101849.44;4834003;29;20056;-74
2021/04/15 16:50:23;;;;;;;0.43;0.10;;;;;;;19.86;19.41;101848.69;4835428;29;20026;-75
2021/04/15 16:52:51;;;;;;;0.20;0.20;;;;;;;19.09;19.95;101841.06;4835968;29;20022;-75
2021/04/15 16:55:18;;;;;;;1.60;1.42;;;;;;;18.38;20.69;101843.94;4837404;29;20149;-75
2021/04/15 16:57:46;;;;;;;0.35;0.30;;;;;;;17.74;21.74;101835.31;4830492;29;20049;-74
2021/04/15 17:00:23;;;;;;;3.78;0.30;;;;;;;17.24;22.31;101854.44;4837714;29;20026;-74
2021/04/15 17:02:51;;;;;;;0.38;0.30;;;;;;;16.74;23.16;101844.94;4838960;29;20038;-73
2021/04/15 17:05:25;;;;;;;0.98;0.20;;;;;;;16.31;23.56;101836.84;4835047;29;20042;-75
2021/04/15 17:07:54;;;;;;;0.32;0.17;;;;;;;15.88;24.89;101845.16;4837960;29;20040;-75
2021/04/15 17:10:20;;;;;;;3.83;0.40;;;;;;;15.47;25.43;101839.38;4834815;29;20031;-74
2021/04/15 17:12:53;;;;;;;0.40;0.20;;;;;;;15.06;25.14;101827.19;4817714;29;20037;-75
2021/04/15 17:15:19;;;;;;;0.43;0.32;;;;;;;14.79;25.89;101817.88;4839675;29;20018;-76